Terminal Aerodrome Forecast
Issued by NWS

Home | Current Version | Previous Version | Text Only | Print | Product List | Glossary On
Versions: 1 2 3 4 5 6 7 8 9 10 11
000
FTUS44 KSJT 161700
TAFBBD
TAF
KBBD 161727Z 1618/1718 16015KT P6SM BKN250
     FM170200 14011KT P6SM SCT250
     FM171000 15011KT P6SM BKN015=

USA.gov is the U.S. government's official web portal to all federal, state and local government web resources and services.